createdAt,value
2022-09-28T00:01:17.707Z,1.57
2022-09-28T00:03:47.381Z,1.97
2022-09-28T00:06:18.529Z,2.30
2022-09-28T00:08:50.078Z,2.47
2022-09-28T00:11:20.912Z,2.40
2022-09-28T00:13:51.383Z,2.73
2022-09-28T00:16:21.414Z,2.13
2022-09-28T00:18:51.152Z,2.07
2022-09-28T00:21:21.589Z,2.30
2022-09-28T00:24:11.035Z,2.97
2022-09-28T00:26:41.178Z,1.93
2022-09-28T00:29:16.471Z,2.20
2022-09-28T00:31:45.038Z,2.73
2022-09-28T00:34:13.733Z,2.20
2022-09-28T00:36:45.874Z,1.53
2022-09-28T00:39:16.531Z,2.07
2022-09-28T00:41:45.453Z,1.90
2022-09-28T00:44:35.444Z,1.80
2022-09-28T00:47:10.465Z,2.10
2022-09-28T00:49:44.374Z,1.77
2022-09-28T00:52:16.800Z,1.70
2022-09-28T00:54:48.012Z,3.30
2022-09-28T00:57:17.632Z,2.07
2022-09-28T00:59:46.048Z,1.23
2022-09-28T01:02:14.493Z,1.50
2022-09-28T01:04:42.864Z,1.50
2022-09-28T01:07:11.652Z,1.60
2022-09-28T01:09:40.819Z,1.87
2022-09-28T01:12:10.529Z,2.20
2022-09-28T01:14:39.310Z,1.60
2022-09-28T01:17:14.687Z,1.30
2022-09-28T01:20:24.952Z,1.73
2022-09-28T01:23:17.434Z,1.30
2022-09-28T01:25:54.255Z,1.30
2022-09-28T01:28:27.450Z,1.50
2022-09-28T01:31:04.887Z,1.13
2022-09-28T01:33:40.042Z,1.70
2022-09-28T01:36:15.037Z,1.30
2022-09-28T01:38:47.620Z,1.50
2022-09-28T01:41:17.825Z,2.03
2022-09-28T01:43:51.591Z,1.73
2022-09-28T01:46:23.346Z,1.77
2022-09-28T01:48:55.562Z,1.47
2022-09-28T01:51:33.230Z,1.70
2022-09-28T01:54:06.684Z,1.17
2022-09-28T01:56:39.332Z,1.47
2022-09-28T01:59:11.762Z,1.67
2022-09-28T02:01:44.592Z,1.90
2022-09-28T02:04:18.404Z,2.07
2022-09-28T02:06:52.007Z,2.03
2022-09-28T02:09:24.309Z,1.80
2022-09-28T02:11:57.172Z,2.47
2022-09-28T02:14:27.335Z,2.43
2022-09-28T02:16:57.820Z,2.50
2022-09-28T02:19:28.493Z,2.53
2022-09-28T02:22:01.140Z,3.20
2022-09-28T02:24:35.740Z,3.00
2022-09-28T02:27:09.103Z,2.90
2022-09-28T02:29:38.701Z,3.10
2022-09-28T02:32:07.097Z,3.00
2022-09-28T02:34:36.815Z,2.90
2022-09-28T02:37:05.025Z,3.17
2022-09-28T02:39:33.303Z,3.10
2022-09-28T02:42:12.975Z,3.43
2022-09-28T02:44:55.379Z,3.70
2022-09-28T02:47:36.819Z,3.87
2022-09-28T02:50:11.498Z,3.80
2022-09-28T02:53:04.303Z,3.80
2022-09-28T02:55:46.758Z,3.73
2022-09-28T02:58:24.251Z,3.73
2022-09-28T03:00:58.544Z,2.60
2022-09-28T03:03:36.907Z,2.77
2022-09-28T03:06:12.662Z,2.70
2022-09-28T03:08:44.889Z,2.93
2022-09-28T03:11:17.695Z,2.70
2022-09-28T03:13:46.397Z,2.80
2022-09-28T03:16:18.345Z,3.50
2022-09-28T03:18:47.263Z,2.97
2022-09-28T03:21:16.488Z,2.97
2022-09-28T03:23:44.784Z,2.60
2022-09-28T03:26:13.623Z,3.50
2022-09-28T03:28:42.046Z,3.43
2022-09-28T03:31:10.207Z,3.33
2022-09-28T03:33:39.865Z,3.30
2022-09-28T03:36:09.821Z,4.63
2022-09-28T03:38:38.149Z,4.80
2022-09-28T03:41:07.609Z,5.40
2022-09-28T03:43:35.870Z,5.77
2022-09-28T03:46:04.684Z,6.43
2022-09-28T03:48:35.067Z,5.60
2022-09-28T03:51:09.180Z,6.00
2022-09-28T03:53:37.779Z,5.83
2022-09-28T03:56:07.956Z,5.90
2022-09-28T03:58:36.134Z,5.67
2022-09-28T04:01:05.485Z,6.20
2022-09-28T04:03:34.122Z,6.70
2022-09-28T04:06:02.564Z,7.53
2022-09-28T04:08:32.215Z,7.60
2022-09-28T04:11:01.861Z,8.33
2022-09-28T04:13:31.048Z,7.27
2022-09-28T04:16:01.460Z,7.60
2022-09-28T04:18:30.128Z,8.20
2022-09-28T04:21:06.743Z,8.47
2022-09-28T04:23:38.269Z,7.83
2022-09-28T04:26:08.489Z,7.87
2022-09-28T04:28:54.124Z,7.60
2022-09-28T04:31:24.564Z,7.77
2022-09-28T04:33:53.742Z,8.27
2022-09-28T04:36:21.853Z,7.60
2022-09-28T04:38:53.623Z,7.57
2022-09-28T04:41:22.956Z,8.17
2022-09-28T04:43:51.588Z,8.60
2022-09-28T04:46:20.277Z,9.77
2022-09-28T04:48:48.703Z,9.23
2022-09-28T04:51:17.025Z,8.47
2022-09-28T04:53:45.215Z,9.20
2022-09-28T04:56:16.166Z,8.90
2022-09-28T04:58:47.828Z,8.67
2022-09-28T05:01:23.427Z,8.73
2022-09-28T05:03:52.228Z,8.77
2022-09-28T05:06:22.726Z,9.13
2022-09-28T05:08:51.021Z,9.50
2022-09-28T05:11:21.647Z,9.77
2022-09-28T05:13:50.482Z,9.07
2022-09-28T05:16:20.394Z,8.70
2022-09-28T05:18:48.699Z,8.73
2022-09-28T05:21:19.736Z,8.70
2022-09-28T05:23:48.591Z,9.00
2022-09-28T05:26:16.982Z,9.37
2022-09-28T05:28:47.187Z,9.30
2022-09-28T05:31:15.892Z,7.70
2022-09-28T05:33:44.248Z,7.07
2022-09-28T05:36:13.093Z,4.13
2022-09-28T05:38:41.392Z,2.33
2022-09-28T05:41:09.718Z,1.47
2022-09-28T05:43:38.551Z,1.00
2022-09-28T05:46:09.001Z,1.57
2022-09-28T05:48:37.241Z,1.10
2022-09-28T05:51:05.563Z,0.80
2022-09-28T05:53:33.886Z,1.00
2022-09-28T05:56:02.524Z,1.00
2022-09-28T05:58:30.916Z,1.10
2022-09-28T06:00:59.603Z,1.07
2022-09-28T06:03:29.227Z,1.10
2022-09-28T06:05:57.651Z,1.00
2022-09-28T06:08:26.079Z,0.90
2022-09-28T06:10:54.309Z,1.03
2022-09-28T06:13:22.587Z,1.20
2022-09-28T06:15:50.902Z,1.00
2022-09-28T06:18:19.254Z,1.30
2022-09-28T06:20:48.802Z,1.20
2022-09-28T06:23:17.075Z,2.10
2022-09-28T06:25:45.668Z,2.10
2022-09-28T06:28:15.578Z,1.50
2022-09-28T06:30:45.061Z,1.10
2022-09-28T06:33:15.025Z,0.90
2022-09-28T06:35:43.513Z,0.97
2022-09-28T06:38:13.176Z,1.57
2022-09-28T06:40:41.608Z,1.10
2022-09-28T06:43:14.687Z,1.30
2022-09-28T06:45:43.822Z,1.30
2022-09-28T06:48:13.824Z,1.83
2022-09-28T06:50:42.683Z,1.63
2022-09-28T06:53:14.639Z,1.00
2022-09-28T06:55:44.023Z,1.30
2022-09-28T06:58:14.547Z,1.07
2022-09-28T07:00:43.321Z,1.03
2022-09-28T07:03:14.056Z,1.03
2022-09-28T07:05:44.105Z,0.90
2022-09-28T07:08:13.813Z,1.03
2022-09-28T07:10:44.150Z,0.80
2022-09-28T07:13:35.494Z,1.10
2022-09-28T07:16:02.190Z,0.73
2022-09-28T07:18:30.458Z,1.10
2022-09-28T07:20:58.870Z,1.10
2022-09-28T07:23:29.728Z,1.10
2022-09-28T07:25:58.331Z,1.20
2022-09-28T07:28:26.717Z,0.90
2022-09-28T07:30:57.553Z,1.10
2022-09-28T07:33:29.933Z,1.10
2022-09-28T07:35:58.515Z,0.80
2022-09-28T07:38:28.019Z,0.80
2022-09-28T07:41:14.132Z,0.90
2022-09-28T07:43:42.793Z,0.90
2022-09-28T07:46:12.972Z,1.00
2022-09-28T07:48:42.863Z,0.77
2022-09-28T07:51:11.534Z,0.80
2022-09-28T07:53:41.177Z,0.57
2022-09-28T07:56:10.341Z,0.60
2022-09-28T07:58:40.276Z,0.70
2022-09-28T08:01:10.394Z,0.80
2022-09-28T08:03:39.479Z,0.60
2022-09-28T08:06:11.118Z,1.30
2022-09-28T08:08:44.631Z,0.60
2022-09-28T08:11:13.784Z,0.70
2022-09-28T08:13:42.542Z,0.80
2022-09-28T08:16:11.891Z,0.97
2022-09-28T08:18:40.335Z,1.10
2022-09-28T08:21:25.933Z,0.93
2022-09-28T08:23:55.474Z,1.30
2022-09-28T08:26:24.239Z,1.27
2022-09-28T08:28:52.636Z,1.23
2022-09-28T08:31:20.844Z,1.40
2022-09-28T08:33:54.392Z,1.00
2022-09-28T08:36:22.549Z,1.00
2022-09-28T08:38:50.663Z,0.73
2022-09-28T08:41:41.276Z,0.90
2022-09-28T08:44:23.823Z,1.20
2022-09-28T08:46:55.721Z,1.20
2022-09-28T08:49:30.287Z,0.87
2022-09-28T08:52:01.947Z,0.93
2022-09-28T08:54:40.325Z,1.00
2022-09-28T08:57:15.085Z,0.90
2022-09-28T08:59:50.438Z,1.00
2022-09-28T09:02:24.007Z,1.10
2022-09-28T09:04:53.238Z,0.80
2022-09-28T09:07:48.992Z,1.07
2022-09-28T09:10:33.933Z,0.97
2022-09-28T09:13:17.728Z,0.90
2022-09-28T09:15:51.648Z,1.20
2022-09-28T09:18:27.309Z,1.00
2022-09-28T09:20:58.388Z,0.80
2022-09-28T09:23:38.370Z,0.90
2022-09-28T09:26:19.811Z,1.10
2022-09-28T09:29:18.299Z,1.27
2022-09-28T09:32:03.119Z,0.90
2022-09-28T09:35:08.204Z,1.00
2022-09-28T09:37:54.183Z,0.97
2022-09-28T09:40:41.072Z,0.70
2022-09-28T09:43:32.911Z,0.50
2022-09-28T09:46:14.087Z,0.70
2022-09-28T09:48:51.874Z,0.70
2022-09-28T09:51:26.717Z,0.63
2022-09-28T09:54:00.063Z,0.70
2022-09-28T09:56:36.188Z,0.90
2022-09-28T09:59:09.234Z,0.70
2022-09-28T10:01:40.820Z,0.70
2022-09-28T10:04:18.948Z,0.80
2022-09-28T10:06:49.789Z,1.10
2022-09-28T10:09:24.914Z,0.80
2022-09-28T10:11:54.353Z,0.70
2022-09-28T10:14:24.728Z,0.70
2022-09-28T10:16:56.756Z,0.60
2022-09-28T10:19:32.365Z,0.80
2022-09-28T10:22:02.551Z,0.73
2022-09-28T10:24:34.331Z,1.53
2022-09-28T10:27:07.253Z,1.07
2022-09-28T10:29:46.932Z,0.90
2022-09-28T10:32:25.279Z,0.70
2022-09-28T10:34:55.010Z,1.47
2022-09-28T10:37:24.332Z,0.80
2022-09-28T10:39:54.513Z,1.17
2022-09-28T10:42:27.003Z,1.00
2022-09-28T10:45:00.079Z,1.00
2022-09-28T10:47:32.633Z,1.00
2022-09-28T10:50:01.690Z,0.97
2022-09-28T10:52:33.421Z,0.80
2022-09-28T10:55:02.234Z,0.70
2022-09-28T10:57:35.002Z,1.03
2022-09-28T11:00:07.245Z,1.10
2022-09-28T11:02:38.593Z,0.80
2022-09-28T11:05:08.445Z,0.70
2022-09-28T11:07:47.500Z,0.80
2022-09-28T11:10:23.153Z,0.77
2022-09-28T11:12:52.376Z,0.75
2022-09-28T11:15:23.052Z,0.80
2022-09-28T11:17:52.728Z,0.80
2022-09-28T11:20:45.590Z,0.90
2022-09-28T11:23:20.535Z,0.47
2022-09-28T11:25:59.532Z,0.63
2022-09-28T11:28:32.904Z,0.80
2022-09-28T11:31:02.575Z,0.80
2022-09-28T11:33:34.604Z,0.70
2022-09-28T11:36:21.310Z,0.80
2022-09-28T11:39:03.424Z,0.80
2022-09-28T11:41:58.972Z,1.13
2022-09-28T11:44:39.233Z,0.70
2022-09-28T11:47:32.434Z,0.90
2022-09-28T11:50:07.633Z,0.63
2022-09-28T11:52:43.034Z,0.80
2022-09-28T11:55:16.637Z,0.70
2022-09-28T11:57:49.875Z,0.60
2022-09-28T12:00:22.313Z,1.43
2022-09-28T12:02:56.642Z,0.67
2022-09-28T12:05:30.059Z,0.70
2022-09-28T12:08:02.546Z,0.60
2022-09-28T12:10:44.679Z,1.00
2022-09-28T12:13:19.497Z,0.70
2022-09-28T12:16:20.011Z,1.00
2022-09-28T12:18:46.882Z,0.97
2022-09-28T12:21:35.675Z,1.20
2022-09-28T12:24:11.096Z,1.20
2022-09-28T12:26:45.086Z,1.00
2022-09-28T12:29:16.091Z,1.00
2022-09-28T12:32:02.781Z,1.07
2022-09-28T12:34:31.031Z,0.93
2022-09-28T12:37:15.681Z,0.90
2022-09-28T12:40:14.708Z,0.80
2022-09-28T12:43:07.222Z,1.00
2022-09-28T12:46:11.707Z,0.90
2022-09-28T12:49:51.528Z,0.70
2022-09-28T12:51:53.897Z,0.88
2022-09-28T12:54:55.886Z,1.02
2022-09-28T12:57:47.721Z,1.20
2022-09-28T13:00:22.211Z,0.80
2022-09-28T13:03:31.629Z,0.70
2022-09-28T13:06:29.727Z,0.85
2022-09-28T13:09:11.250Z,1.30
2022-09-28T13:11:49.236Z,0.90
2022-09-28T13:14:56.585Z,1.13
2022-09-28T13:17:39.691Z,0.85
2022-09-28T13:20:23.272Z,0.90
2022-09-28T13:22:57.870Z,1.05
2022-09-28T13:25:29.208Z,1.40
2022-09-28T13:28:02.827Z,1.03
2022-09-28T13:30:32.151Z,2.63
2022-09-28T13:33:03.495Z,1.20
2022-09-28T13:35:33.296Z,1.80
2022-09-28T13:38:47.529Z,1.10
2022-09-28T13:41:19.187Z,1.00
2022-09-28T13:44:05.929Z,1.00
2022-09-28T13:46:40.361Z,1.17
2022-09-28T13:49:18.484Z,1.17
2022-09-28T13:52:03.825Z,1.30
2022-09-28T13:54:57.673Z,1.23
2022-09-28T13:57:31.283Z,2.67
2022-09-28T14:00:12.508Z,1.23
2022-09-28T14:02:45.204Z,1.20
2022-09-28T14:05:48.510Z,1.20
2022-09-28T14:08:31.935Z,1.10
2022-09-28T14:11:42.059Z,1.17
2022-09-28T14:14:33.411Z,1.00
2022-09-28T14:17:53.314Z,1.20
2022-09-28T14:20:25.351Z,1.73
2022-09-28T14:23:25.279Z,1.27
2022-09-28T14:26:27.449Z,1.00
2022-09-28T14:29:10.003Z,1.00
2022-09-28T14:31:43.376Z,1.20
2022-09-28T14:34:34.204Z,1.00
2022-09-28T14:37:21.997Z,0.93
2022-09-28T14:40:08.553Z,1.00
2022-09-28T14:42:37.630Z,0.63
2022-09-28T14:45:46.088Z,0.80
2022-09-28T14:48:21.661Z,0.80
2022-09-28T14:50:51.612Z,1.00
2022-09-28T14:53:23.088Z,0.90
2022-09-28T14:55:55.424Z,1.47
2022-09-28T14:58:26.703Z,1.20
2022-09-28T15:01:04.377Z,2.70
2022-09-28T15:03:36.422Z,1.33
2022-09-28T15:06:06.697Z,1.50
2022-09-28T15:08:39.419Z,1.10
2022-09-28T15:11:14.828Z,1.80
2022-09-28T15:13:43.871Z,2.10
2022-09-28T15:16:14.149Z,1.47
2022-09-28T15:19:09.554Z,1.30
2022-09-28T15:21:41.949Z,1.20
2022-09-28T15:24:31.470Z,1.00
2022-09-28T15:27:00.285Z,1.00
2022-09-28T15:29:31.472Z,0.97
2022-09-28T15:31:59.842Z,1.23
2022-09-28T15:34:46.568Z,1.10
2022-09-28T15:37:18.972Z,2.28
2022-09-28T15:39:48.213Z,1.50
2022-09-28T15:42:18.510Z,1.55
2022-09-28T15:45:04.033Z,1.20
2022-09-28T15:47:33.051Z,1.15
2022-09-28T15:50:04.273Z,1.10
2022-09-28T15:52:38.371Z,1.30
2022-09-28T15:55:20.291Z,1.20
2022-09-28T15:57:48.992Z,1.30
2022-09-28T16:00:28.284Z,1.43
2022-09-28T16:03:05.649Z,1.08
2022-09-28T16:05:39.276Z,1.07
2022-09-28T16:08:21.201Z,1.42
2022-09-28T16:10:57.762Z,1.23
2022-09-28T16:13:26.520Z,1.60
2022-09-28T16:16:00.120Z,1.77
2022-09-28T16:18:30.356Z,2.70
2022-09-28T16:21:20.570Z,7.03
2022-09-28T16:23:55.644Z,26.77
2022-09-28T16:26:32.243Z,1.70
2022-09-28T16:29:02.019Z,1.10
2022-09-28T16:31:36.819Z,1.67
2022-09-28T16:34:20.755Z,2.10
2022-09-28T16:36:52.407Z,1.30
2022-09-28T16:39:21.909Z,23.50
2022-09-28T16:41:52.966Z,6.35
2022-09-28T16:44:25.882Z,2.60
2022-09-28T16:46:57.078Z,2.93
2022-09-28T16:49:26.763Z,9.43
2022-09-28T16:51:55.182Z,9.40
2022-09-28T16:54:43.423Z,2.13
2022-09-28T16:57:13.680Z,10.68
2022-09-28T16:59:42.097Z,4.83
2022-09-28T17:02:46.159Z,5.50
2022-09-28T17:05:11.188Z,2.70
2022-09-28T17:07:40.198Z,16.77
2022-09-28T17:10:17.080Z,2.13
2022-09-28T17:12:45.290Z,7.80
2022-09-28T17:15:15.694Z,7.33
2022-09-28T17:17:43.830Z,4.57
2022-09-28T17:20:20.314Z,8.43
2022-09-28T17:22:48.511Z,3.63
2022-09-28T17:25:18.338Z,2.27
2022-09-28T17:27:48.047Z,2.50
2022-09-28T17:30:17.317Z,2.80
2022-09-28T17:32:47.164Z,3.60
2022-09-28T17:35:25.315Z,3.40
2022-09-28T17:37:54.367Z,3.40
2022-09-28T17:40:25.942Z,4.33
2022-09-28T17:42:56.158Z,12.63
2022-09-28T17:45:25.820Z,10.30
2022-09-28T17:47:54.550Z,8.27
2022-09-28T17:50:24.961Z,9.03
2022-09-28T17:52:53.942Z,10.70
2022-09-28T17:55:30.207Z,10.00
2022-09-28T17:57:58.634Z,8.73
2022-09-28T18:00:27.790Z,10.20
2022-09-28T18:02:56.459Z,9.87
2022-09-28T18:05:25.570Z,13.20
2022-09-28T18:07:54.707Z,44.47
2022-09-28T18:10:26.305Z,45.97
2022-09-28T18:12:54.681Z,22.00
2022-09-28T18:15:22.892Z,9.90
2022-09-28T18:17:51.240Z,18.93
2022-09-28T18:20:19.616Z,16.60
2022-09-28T18:22:48.033Z,19.10
2022-09-28T18:25:16.500Z,17.20
2022-09-28T18:27:46.536Z,14.40
2022-09-28T18:30:14.969Z,11.43
2022-09-28T18:32:43.327Z,10.70
2022-09-28T18:35:12.030Z,10.23
2022-09-28T18:37:40.939Z,8.50
2022-09-28T18:40:10.724Z,7.10
2022-09-28T18:42:39.869Z,5.93
2022-09-28T18:45:11.749Z,5.63
2022-09-28T18:47:40.408Z,5.30
2022-09-28T18:50:09.788Z,3.43
2022-09-28T18:52:38.700Z,3.37
2022-09-28T18:55:08.634Z,4.37
2022-09-28T18:57:37.589Z,3.37
2022-09-28T19:00:07.939Z,1.70
2022-09-28T19:02:38.016Z,1.57
2022-09-28T19:05:07.226Z,1.60
2022-09-28T19:07:35.966Z,1.80
2022-09-28T19:10:04.424Z,1.17
2022-09-28T19:12:33.937Z,1.40
2022-09-28T19:15:02.393Z,1.00
2022-09-28T19:17:30.661Z,1.20
2022-09-28T19:20:00.368Z,1.47
2022-09-28T19:22:28.861Z,1.00
2022-09-28T19:24:57.273Z,2.80
2022-09-28T19:27:25.518Z,1.70
2022-09-28T19:29:53.849Z,1.20
2022-09-28T19:32:22.139Z,0.70
2022-09-28T19:34:50.465Z,1.10
2022-09-28T19:37:20.412Z,0.80
2022-09-28T19:39:48.867Z,0.63
2022-09-28T19:42:17.056Z,0.73
2022-09-28T19:44:46.381Z,2.43
2022-09-28T19:47:15.106Z,12.73
2022-09-28T19:49:43.467Z,4.10
2022-09-28T19:52:15.870Z,4.27
2022-09-28T19:54:55.707Z,4.10
2022-09-28T19:57:26.044Z,7.03
2022-09-28T19:59:57.847Z,11.00
2022-09-28T20:02:29.375Z,7.67
2022-09-28T20:05:00.210Z,5.50
2022-09-28T20:07:33.672Z,6.47
2022-09-28T20:10:03.159Z,8.47
2022-09-28T20:12:31.485Z,5.47
2022-09-28T20:14:59.729Z,5.70
2022-09-28T20:17:28.209Z,2.97
2022-09-28T20:19:57.673Z,2.13
2022-09-28T20:22:26.478Z,1.73
2022-09-28T20:24:54.832Z,1.40
2022-09-28T20:27:27.037Z,1.63
2022-09-28T20:29:55.221Z,2.20
2022-09-28T20:32:23.503Z,2.17
2022-09-28T20:34:54.932Z,1.90
2022-09-28T20:37:24.850Z,2.10
2022-09-28T20:39:53.252Z,3.37
2022-09-28T20:42:21.409Z,2.10
2022-09-28T20:44:50.960Z,2.20
2022-09-28T20:47:19.215Z,1.93
2022-09-28T20:49:47.645Z,3.17
2022-09-28T20:52:16.445Z,2.23
2022-09-28T20:54:44.696Z,2.27
2022-09-28T20:57:18.340Z,2.03
2022-09-28T20:59:50.865Z,1.70
2022-09-28T21:02:23.698Z,2.40
2022-09-28T21:04:52.041Z,2.43
2022-09-28T21:07:20.682Z,2.23
2022-09-28T21:09:48.944Z,2.17
2022-09-28T21:12:17.149Z,2.33
2022-09-28T21:14:45.457Z,1.70
2022-09-28T21:17:13.821Z,2.20
2022-09-28T21:19:43.286Z,2.53
2022-09-28T21:22:11.793Z,2.20
2022-09-28T21:24:40.072Z,2.10
2022-09-28T21:27:08.353Z,2.57
2022-09-28T21:29:36.632Z,2.63
2022-09-28T21:32:05.141Z,2.93
2022-09-28T21:34:33.780Z,2.57
2022-09-28T21:37:03.582Z,3.13
2022-09-28T21:39:31.793Z,2.87
2022-09-28T21:42:00.009Z,2.83
2022-09-28T21:44:28.144Z,3.03
2022-09-28T21:46:56.604Z,3.53
2022-09-28T21:49:24.718Z,3.97
2022-09-28T21:51:52.889Z,3.77
2022-09-28T21:54:22.528Z,3.70
2022-09-28T21:56:50.723Z,4.30
2022-09-28T21:59:19.020Z,4.40
2022-09-28T22:01:48.140Z,4.40
2022-09-28T22:04:16.686Z,4.50
2022-09-28T22:06:45.136Z,4.43
2022-09-28T22:09:13.319Z,4.50
2022-09-28T22:11:45.391Z,4.20
2022-09-28T22:14:13.661Z,3.83
2022-09-28T22:16:42.469Z,4.77
2022-09-28T22:19:10.777Z,4.10
2022-09-28T22:21:39.076Z,4.00
2022-09-28T22:24:08.699Z,3.97
2022-09-28T22:26:39.446Z,3.47
2022-09-28T22:29:10.827Z,2.37
2022-09-28T22:31:40.433Z,2.67
2022-09-28T22:34:09.235Z,2.40
2022-09-28T22:36:37.773Z,2.43
2022-09-28T22:39:06.157Z,1.90
2022-09-28T22:41:34.865Z,2.40
2022-09-28T22:44:03.366Z,3.10
2022-09-28T22:46:33.131Z,3.40
2022-09-28T22:49:01.777Z,3.80
2022-09-28T22:51:31.337Z,3.30
2022-09-28T22:53:59.922Z,3.20
2022-09-28T22:56:28.932Z,2.60
2022-09-28T22:58:57.459Z,2.57
2022-09-28T23:01:27.605Z,2.60
2022-09-28T23:03:58.402Z,2.43
2022-09-28T23:06:29.060Z,2.17
2022-09-28T23:08:57.495Z,2.20
2022-09-28T23:11:25.802Z,2.20
2022-09-28T23:13:55.478Z,2.13
2022-09-28T23:16:25.579Z,1.60
2022-09-28T23:18:55.149Z,1.97
2022-09-28T23:21:26.386Z,1.80
2022-09-28T23:23:56.611Z,1.40
2022-09-28T23:26:29.475Z,1.83
2022-09-28T23:28:58.163Z,1.43
2022-09-28T23:31:28.411Z,1.60
2022-09-28T23:34:00.645Z,1.60
2022-09-28T23:36:30.883Z,1.50
2022-09-28T23:38:59.194Z,1.30
2022-09-28T23:41:27.599Z,1.30
2022-09-28T23:43:55.850Z,1.33
2022-09-28T23:46:27.069Z,1.40
2022-09-28T23:48:55.545Z,1.50
2022-09-28T23:51:23.909Z,1.33
2022-09-28T23:53:53.601Z,1.40
2022-09-28T23:56:21.924Z,1.40
2022-09-28T23:58:50.456Z,1.40
